Decoded Metar for LEAG (Algeciras in SPAIN) (IATA:N/A) | Meteo·Mobile Aviation Weather
aviador You're here:

LEAG Decoded Metar

Algeciras in SPAIN
Report Time2019-02-20 19:30:00
UTC Time2019-02-20 19:48:08
Flight Rules vfr VFR
Wind100° at 11 kt
W.Rank100° ranks 4
Current wind is below 100° avg. (11.8)
Visibility9999 m
Phenomena:N/A
Clouds:Few 023 Hf
Expected CloudBase > 2,000 ft AGL from Temp-Dew spread
CeilingNone
Temp15°C
Dew Point10°C (72% RH)
AAT11.1°C
QNH1024 hPa
Raw Report
METAR LEAG 201930Z AUTO 10011KT 070V130 9999 FEW023 15/10 Q1024=

Extra information for LEAG:More info

Metar Taf Metar & Taf Last 4 Metars F.Rules Stats Wind Profile Meteogram Temp Stats Airport Information Weather charts Add Link Nearby VenuesMetar ALERT Operation Metar Decoded Social comments